• Join FlightAware (Why Join?)
  • Login
  • US Flag 
07:10PM EDT


 

Airport Tracker/Info


-or-


 

Live Flight TrackerFlight Track Log ✈ SKW6492 ✈ 04-May-2013 ✈ KDEN - KCOD

Flight Track Log - Related Links

Times and Time Zones

All times are in EDT time to prevent confusion due to time zone crossing. See the SKW6492 flight status page for this flight to view local times or setup timezone preferences in your user account.

Time Position Orientation Groundspeed Altitude Reporting Facility
EDT Latitude Longitude Course Direction KTS MPH feet Rate Location/Type
09:34PM 39.8833 -104.5833 346° North 185 213 7,100  Level Denver TRACON
09:35PM 39.9000 -104.4833 78° East 268 308 8,900 1,920 Climbing Denver TRACON
09:36PM 39.9333 -104.4000 62° Northeast 295 339 11,000 1,740 Climbing Denver TRACON
09:37PM 40.2633 -104.8006 347° North  Level FlightAware Approximate
09:37PM 40.0167 -104.3833 North 330 380 12,300  Level Denver TRACON
09:38PM 40.3669 -104.8334 346° North  Level FlightAware Approximate
09:39PM 40.4702 -104.8678 346° North  Level FlightAware Approximate
09:39PM 40.1856 -104.5022 332° Northwest 339 390 16,900  Level Denver Center
09:40PM 40.2617 -104.5742 324° Northwest 338 389 18,500 1,560 Climbing Denver Center
09:41PM 40.3558 -104.6392 332° Northwest 365 420 20,100 1,380 Climbing Denver Center
09:42PM 40.4489 -104.6856 339° North 361 415 21,400 1,260 Climbing Denver Center
09:43PM 40.5464 -104.7325 340° North 373 429 22,700 1,260 Climbing Denver Center
09:44PM 40.6431 -104.7822 339° North 373 429 24,000 1,080 Climbing Denver Center
09:45PM 40.7375 -104.8289 339° North 381 438 25,000 960 Climbing Denver Center
09:46PM 40.8383 -104.8750 341° North 378 435 26,000 1,020 Climbing Denver Center
09:47PM 40.9589 -104.9342 340° North 392 451 27,200 1,020 Climbing Denver Center
09:48PM 41.0492 -104.9792 339° North 395 455 28,100 960 Climbing Denver Center
09:49PM 41.1644 -105.0347 340° North 394 453 29,200 1,020 Climbing Denver Center
09:50PM 41.2603 -105.0850 338° Northwest 389 448 30,200 840 Climbing Denver Center
09:51PM 41.3728 -105.1406 340° North 387 445 31,000 600 Climbing Denver Center
09:52PM 41.4706 -105.1883 340° North 389 448 31,500 480 Climbing Denver Center
09:53PM 41.5667 -105.2422 337° Northwest 391 450 32,000 240 Climbing Denver Center
09:54PM 41.6614 -105.3411 322° Northwest 389 448 32,000  Level Denver Center
09:55PM 41.7442 -105.4311 321° Northwest 396 456 32,000  Level Denver Center
09:56PM 41.8272 -105.5197 322° Northwest 398 458 32,000  Level Denver Center
09:57PM 41.9236 -105.6236 321° Northwest 398 458 32,000  Level Denver Center
09:58PM 42.0061 -105.7150 321° Northwest 400 460 32,000  Level Denver Center
09:59PM 42.0883 -105.8042 321° Northwest 396 456 32,000  Level Denver Center
10:00PM 42.1819 -105.9086 320° Northwest 393 452 32,000  Level Denver Center
10:01PM 42.2636 -105.9986 321° Northwest 395 455 32,000  Level Denver Center
10:02PM 42.3447 -106.0897 320° Northwest 395 455 32,000  Level Denver Center
10:03PM 42.4406 -106.1953 321° Northwest 397 457 32,000  Level Denver Center
10:04PM 42.5219 -106.2875 320° Northwest 397 457 32,000  Level Denver Center
10:05PM 42.6172 -106.3933 321° Northwest 396 456 32,000  Level Denver Center
10:06PM 42.6975 -106.4856 320° Northwest 395 455 32,000  Level Denver Center
10:07PM 42.7800 -106.5786 320° Northwest 400 460 32,000  Level Denver Center
10:08PM 42.8761 -106.6875 320° Northwest 402 463 32,000  Level Denver Center
10:09PM 42.9714 -106.7969 320° Northwest 402 463 32,000  Level Denver Center
10:11PM 43.0683 -106.9067 320° Northwest 404 465 32,000  Level Denver Center
10:12PM 43.1536 -107.0053 320° Northwest 399 459 32,000  Level Denver Center
10:12PM 43.1942 -107.0550 318° Northwest 405 466 32,000  Level Salt Lake Center
10:13PM 43.2911 -107.1664 320° Northwest 407 468 32,000  Level Salt Lake Center
10:14PM 43.3189 -107.1972 321° Northwest 407 468 32,000  Level Denver Center
10:15PM 43.4164 -107.3100 320° Northwest 409 471 32,000  Level Denver Center
10:15PM 43.4581 -107.3611 318° Northwest 415 478 32,000  Level Salt Lake Center
10:16PM 43.5558 -107.4756 320° Northwest 414 476 32,000  Level Salt Lake Center
10:17PM 43.6414 -107.5747 320° Northwest 418 481 32,000  Level Salt Lake Center
10:18PM 43.7389 -107.6933 319° Northwest 419 482 32,000  Level Salt Lake Center
10:19PM 43.8247 -107.7956 319° Northwest 422 486 32,000 -120 Level Salt Lake Center
10:20PM 43.9117 -107.8972 320° Northwest 425 489 31,800 -1,560 Descending Salt Lake Center
10:21PM 44.0083 -108.0181 318° Northwest 420 483 28,900 -2,820 Descending Salt Lake Center
10:22PM 44.0828 -108.1278 313° West 409 471 26,100 -2,820 Descending Salt Lake Center
10:23PM 44.1672 -108.2183 322° Northwest 400 460 23,200 -3,060 Descending Salt Lake Center
10:24PM 44.2628 -108.3231 322° Northwest 393 452 19,900 -3,000 Descending Salt Lake Center
10:25PM 44.3431 -108.4108 322° Northwest 387 445 17,200 -2,760 Descending Salt Lake Center
10:26PM 44.4206 -108.4969 322° Northwest 380 437 14,400 -3,060 Descending Salt Lake Center
10:27PM 44.5072 -108.5922 322° Northwest 367 422 11,000 -2,220 Descending Salt Lake Center
10:28PM 44.5631 -108.6572 320° Northwest 308 354 10,000 -900 Descending Salt Lake Center
10:29PM 44.6131 -108.7114 322° Northwest 254 292 9,200 -960 Descending Salt Lake Center
10:30PM 44.6461 -108.7881 301° West 226 260 8,100 -1,140 Descending Salt Lake Center